RPC3925 RPLL-RPVP
Flight info
| Callsign | RPC3925 |
|---|---|
| Flight time | 0h 56m |
| Altitude | 43000 |
| Route | HARBO1 HARBO DCT BUCAL M646 NOMYO NOMYO2W |
| Aircraft | C25C/M-SDE2E3FGHRWXY/LB1 |
Departure
| Time | 2026-04-16 12:55 |
|---|---|
| Airport | Ninoy Aquino International Airport (RPLL) |
Arrival
| Time | 2026-04-16 13:51 |
|---|---|
| Airport | Puerto Princesa International Airport / PAF Antonio Bautista Air Base (RPVP) |
| Time | Latitude | Longitude | Altitude | Speed | Heading |
|---|---|---|---|---|---|
| 2026-04-16 12:28 | 14.51681 | 121.00340 | 42 ft | 0 kts | 139° |
| 2026-04-16 12:51 | 14.51681 | 121.00341 | 42 ft | 0 kts | 110° |
| 2026-04-16 12:51 | 14.51686 | 121.00344 | 42 ft | 3 kts | 8° |
| 2026-04-16 12:51 | 14.51744 | 121.00353 | 42 ft | 10 kts | 19° |
| 2026-04-16 12:51 | 14.51807 | 121.00466 | 41 ft | 22 kts | 64° |
| 2026-04-16 12:52 | 14.51878 | 121.00592 | 40 ft | 17 kts | 23° |
| 2026-04-16 12:52 | 14.51989 | 121.00612 | 41 ft | 16 kts | 9° |
| 2026-04-16 12:52 | 14.52096 | 121.00636 | 40 ft | 15 kts | 37° |
| 2026-04-16 12:52 | 14.52060 | 121.00717 | 40 ft | 16 kts | 134° |
| 2026-04-16 12:53 | 14.51965 | 121.00815 | 39 ft | 21 kts | 135° |
| 2026-04-16 12:53 | 14.51856 | 121.00928 | 37 ft | 27 kts | 135° |
| 2026-04-16 12:53 | 14.51677 | 121.01113 | 34 ft | 45 kts | 135° |
| 2026-04-16 12:53 | 14.51433 | 121.01366 | 27 ft | 50 kts | 134° |
| 2026-04-16 12:54 | 14.51200 | 121.01605 | 23 ft | 45 kts | 136° |
| 2026-04-16 12:54 | 14.51030 | 121.01798 | 22 ft | 23 kts | 115° |
| 2026-04-16 12:54 | 14.51007 | 121.01798 | 22 ft | 6 kts | 317° |
| 2026-04-16 12:54 | 14.51051 | 121.01760 | 22 ft | 17 kts | 315° |
| 2026-04-16 12:55 | 14.51220 | 121.01585 | 23 ft | 61 kts | 315° |
| 2026-04-16 12:55 | 14.51733 | 121.01047 | 66 ft | 145 kts | 313° |
| 2026-04-16 12:55 | 14.52511 | 121.00288 | 894 ft | 161 kts | 315° |
| 2026-04-16 12:55 | 14.53393 | 120.99435 | 1748 ft | 187 kts | 315° |
| 2026-04-16 12:56 | 14.54294 | 120.98446 | 2848 ft | 191 kts | 310° |
| 2026-04-16 12:56 | 14.55261 | 120.97395 | 3715 ft | 211 kts | 314° |
| 2026-04-16 12:56 | 14.56342 | 120.96283 | 4579 ft | 227 kts | 315° |
| 2026-04-16 12:56 | 14.57492 | 120.95101 | 5434 ft | 238 kts | 315° |
| 2026-04-16 12:57 | 14.58628 | 120.93818 | 6293 ft | 247 kts | 304° |
| 2026-04-16 12:57 | 14.59063 | 120.92089 | 7083 ft | 256 kts | 271° |
| 2026-04-16 12:57 | 14.58523 | 120.90294 | 7876 ft | 278 kts | 235° |
| 2026-04-16 12:57 | 14.56982 | 120.88996 | 8717 ft | 299 kts | 204° |
| 2026-04-16 12:58 | 14.54962 | 120.88263 | 9592 ft | 317 kts | 194° |
| 2026-04-16 12:58 | 14.52805 | 120.87694 | 10411 ft | 331 kts | 192° |
| 2026-04-16 12:58 | 14.50533 | 120.87075 | 11237 ft | 344 kts | 195° |
| 2026-04-16 12:58 | 14.48224 | 120.86300 | 12085 ft | 354 kts | 197° |
| 2026-04-16 12:59 | 14.45849 | 120.85502 | 12959 ft | 362 kts | 196° |
| 2026-04-16 12:59 | 14.43414 | 120.84732 | 13829 ft | 369 kts | 195° |
| 2026-04-16 12:59 | 14.40941 | 120.83957 | 14709 ft | 371 kts | 196° |
| 2026-04-16 13:00 | 14.36034 | 120.82387 | 16833 ft | 366 kts | 197° |
| 2026-04-16 13:00 | 14.33602 | 120.81612 | 17952 ft | 364 kts | 196° |
| 2026-04-16 13:00 | 14.31188 | 120.80841 | 18975 ft | 361 kts | 197° |
| 2026-04-16 13:00 | 14.29605 | 120.80340 | 19642 ft | 359 kts | 197° |
| 2026-04-16 13:01 | 14.27201 | 120.79573 | 20486 ft | 364 kts | 197° |
| 2026-04-16 13:01 | 14.23970 | 120.78545 | 21593 ft | 369 kts | 197° |
| 2026-04-16 13:01 | 14.21511 | 120.77758 | 22464 ft | 371 kts | 197° |
| 2026-04-16 13:01 | 14.19837 | 120.77229 | 23066 ft | 373 kts | 197° |
| 2026-04-16 13:02 | 14.16548 | 120.76180 | 24129 ft | 374 kts | 197° |
| 2026-04-16 13:02 | 14.14865 | 120.75646 | 24649 ft | 375 kts | 197° |
| 2026-04-16 13:02 | 14.12374 | 120.74851 | 25429 ft | 374 kts | 197° |
| 2026-04-16 13:02 | 14.09919 | 120.74071 | 26222 ft | 374 kts | 197° |
| 2026-04-16 13:03 | 14.07438 | 120.73282 | 27047 ft | 372 kts | 197° |
| 2026-04-16 13:03 | 14.04975 | 120.72497 | 27896 ft | 370 kts | 197° |
| 2026-04-16 13:03 | 14.02519 | 120.71718 | 28767 ft | 367 kts | 197° |
| 2026-04-16 13:03 | 14.00094 | 120.70946 | 29660 ft | 364 kts | 197° |
| 2026-04-16 13:04 | 13.97678 | 120.70179 | 30351 ft | 366 kts | 197° |
| 2026-04-16 13:04 | 13.95222 | 120.69399 | 30798 ft | 372 kts | 197° |
| 2026-04-16 13:04 | 13.92732 | 120.68607 | 31256 ft | 378 kts | 197° |
| 2026-04-16 13:04 | 13.90198 | 120.67803 | 31726 ft | 382 kts | 197° |
| 2026-04-16 13:05 | 13.87642 | 120.66990 | 32200 ft | 386 kts | 198° |
| 2026-04-16 13:05 | 13.85058 | 120.66170 | 32688 ft | 390 kts | 198° |
| 2026-04-16 13:05 | 13.82459 | 120.65347 | 33188 ft | 392 kts | 198° |
| 2026-04-16 13:05 | 13.79840 | 120.64514 | 33689 ft | 394 kts | 198° |
| 2026-04-16 13:06 | 13.77212 | 120.63682 | 34172 ft | 395 kts | 198° |
| 2026-04-16 13:06 | 13.74583 | 120.62847 | 34626 ft | 396 kts | 198° |
| 2026-04-16 13:06 | 13.71948 | 120.62012 | 35079 ft | 396 kts | 198° |
| 2026-04-16 13:06 | 13.69311 | 120.61177 | 35542 ft | 396 kts | 198° |
| 2026-04-16 13:07 | 13.66678 | 120.60341 | 35974 ft | 397 kts | 197° |
| 2026-04-16 13:07 | 13.64026 | 120.59501 | 36380 ft | 398 kts | 198° |
| 2026-04-16 13:07 | 13.61411 | 120.58674 | 36789 ft | 399 kts | 197° |
| 2026-04-16 13:07 | 13.58786 | 120.57649 | 37215 ft | 399 kts | 206° |
| 2026-04-16 13:08 | 13.56312 | 120.56441 | 37643 ft | 399 kts | 205° |
| 2026-04-16 13:08 | 13.53795 | 120.55236 | 38082 ft | 398 kts | 205° |
| 2026-04-16 13:08 | 13.51287 | 120.54037 | 38527 ft | 397 kts | 205° |
| 2026-04-16 13:08 | 13.48788 | 120.52830 | 38917 ft | 396 kts | 205° |
| 2026-04-16 13:09 | 13.46302 | 120.51629 | 39296 ft | 394 kts | 205° |
| 2026-04-16 13:09 | 13.43824 | 120.50439 | 39684 ft | 392 kts | 205° |
| 2026-04-16 13:09 | 13.41360 | 120.49254 | 40076 ft | 390 kts | 205° |
| 2026-04-16 13:09 | 13.38913 | 120.48078 | 40476 ft | 387 kts | 206° |
| 2026-04-16 13:10 | 13.36486 | 120.46909 | 40885 ft | 384 kts | 206° |
| 2026-04-16 13:10 | 13.34073 | 120.45749 | 41301 ft | 381 kts | 206° |
| 2026-04-16 13:10 | 13.31684 | 120.44602 | 41719 ft | 378 kts | 206° |
| 2026-04-16 13:10 | 13.29293 | 120.43452 | 41890 ft | 382 kts | 206° |
| 2026-04-16 13:11 | 13.26859 | 120.42282 | 41930 ft | 389 kts | 206° |
| 2026-04-16 13:11 | 13.21863 | 120.39884 | 41937 ft | 404 kts | 206° |
| 2026-04-16 13:12 | 13.16702 | 120.37405 | 41941 ft | 414 kts | 206° |
| 2026-04-16 13:12 | 13.11430 | 120.34876 | 41940 ft | 422 kts | 206° |
| 2026-04-16 13:13 | 13.06088 | 120.32314 | 41934 ft | 429 kts | 206° |
| 2026-04-16 13:13 | 13.00637 | 120.29702 | 41931 ft | 435 kts | 206° |
| 2026-04-16 13:14 | 12.95117 | 120.27056 | 41933 ft | 440 kts | 206° |
| 2026-04-16 13:14 | 12.89541 | 120.24386 | 41936 ft | 444 kts | 206° |
| 2026-04-16 13:15 | 12.83910 | 120.21691 | 41933 ft | 447 kts | 206° |
| 2026-04-16 13:15 | 12.78248 | 120.18982 | 41936 ft | 447 kts | 206° |
| 2026-04-16 13:16 | 12.72773 | 120.16364 | 41921 ft | 430 kts | 206° |
| 2026-04-16 13:16 | 12.67357 | 120.13776 | 41914 ft | 428 kts | 206° |
| 2026-04-16 13:17 | 12.61963 | 120.11199 | 41918 ft | 427 kts | 206° |
| 2026-04-16 13:17 | 12.56582 | 120.08629 | 41917 ft | 426 kts | 206° |
| 2026-04-16 13:18 | 12.51206 | 120.06063 | 41917 ft | 425 kts | 206° |
| 2026-04-16 13:18 | 12.45836 | 120.03502 | 41916 ft | 425 kts | 206° |
| 2026-04-16 13:19 | 12.40509 | 120.00962 | 41918 ft | 425 kts | 206° |
| 2026-04-16 13:19 | 12.35156 | 119.98410 | 41916 ft | 424 kts | 206° |
| 2026-04-16 13:20 | 12.29807 | 119.95861 | 41915 ft | 424 kts | 205° |
| 2026-04-16 13:20 | 12.24461 | 119.93316 | 41916 ft | 424 kts | 205° |
| 2026-04-16 13:21 | 12.19111 | 119.90769 | 41918 ft | 424 kts | 205° |
| 2026-04-16 13:21 | 12.13764 | 119.88225 | 41920 ft | 423 kts | 205° |
| 2026-04-16 13:22 | 12.08450 | 119.85698 | 41915 ft | 423 kts | 205° |
| 2026-04-16 13:22 | 12.03108 | 119.83159 | 41915 ft | 423 kts | 205° |
| 2026-04-16 13:23 | 11.97769 | 119.80622 | 41916 ft | 423 kts | 205° |
| 2026-04-16 13:23 | 11.92429 | 119.78086 | 41912 ft | 423 kts | 205° |
| 2026-04-16 13:24 | 11.87088 | 119.75550 | 41914 ft | 423 kts | 205° |
| 2026-04-16 13:24 | 11.81745 | 119.73015 | 41917 ft | 423 kts | 205° |
| 2026-04-16 13:25 | 11.76403 | 119.70481 | 41832 ft | 425 kts | 205° |
| 2026-04-16 13:25 | 11.73692 | 119.69196 | 41576 ft | 431 kts | 205° |
| 2026-04-16 13:25 | 11.70956 | 119.67898 | 41330 ft | 437 kts | 205° |
| 2026-04-16 13:25 | 11.68180 | 119.66583 | 41085 ft | 442 kts | 205° |
| 2026-04-16 13:26 | 11.65382 | 119.65255 | 40845 ft | 446 kts | 205° |
| 2026-04-16 13:26 | 11.62597 | 119.63932 | 40612 ft | 449 kts | 205° |
| 2026-04-16 13:26 | 11.59777 | 119.62592 | 40378 ft | 443 kts | 205° |
| 2026-04-16 13:26 | 11.57008 | 119.61272 | 40141 ft | 436 kts | 205° |
| 2026-04-16 13:27 | 11.54281 | 119.59973 | 39898 ft | 429 kts | 205° |
| 2026-04-16 13:27 | 11.51598 | 119.58692 | 39660 ft | 423 kts | 205° |
| 2026-04-16 13:27 | 11.48940 | 119.57423 | 39343 ft | 420 kts | 205° |
| 2026-04-16 13:27 | 11.46302 | 119.56161 | 38993 ft | 418 kts | 205° |
| 2026-04-16 13:28 | 11.43674 | 119.54902 | 38653 ft | 417 kts | 205° |
| 2026-04-16 13:28 | 11.41058 | 119.53648 | 38265 ft | 415 kts | 205° |
| 2026-04-16 13:28 | 11.38452 | 119.52398 | 37865 ft | 413 kts | 205° |
| 2026-04-16 13:28 | 11.35853 | 119.51148 | 37479 ft | 412 kts | 205° |
| 2026-04-16 13:29 | 11.33267 | 119.49904 | 37098 ft | 410 kts | 205° |
| 2026-04-16 13:29 | 11.30689 | 119.48661 | 36724 ft | 409 kts | 205° |
| 2026-04-16 13:29 | 11.28120 | 119.47422 | 36359 ft | 408 kts | 206° |
| 2026-04-16 13:29 | 11.25560 | 119.46186 | 35998 ft | 407 kts | 206° |
| 2026-04-16 13:30 | 11.23007 | 119.44950 | 35644 ft | 405 kts | 206° |
| 2026-04-16 13:30 | 11.20458 | 119.43716 | 35172 ft | 407 kts | 206° |
| 2026-04-16 13:30 | 11.17884 | 119.42468 | 34605 ft | 412 kts | 206° |
| 2026-04-16 13:30 | 11.15290 | 119.41208 | 34051 ft | 415 kts | 206° |
| 2026-04-16 13:31 | 11.12680 | 119.39940 | 33444 ft | 417 kts | 206° |
| 2026-04-16 13:31 | 11.10054 | 119.38660 | 32827 ft | 419 kts | 206° |
| 2026-04-16 13:31 | 11.07423 | 119.37378 | 32220 ft | 420 kts | 206° |
| 2026-04-16 13:31 | 11.04791 | 119.36092 | 31632 ft | 420 kts | 206° |
| 2026-04-16 13:32 | 11.02156 | 119.34803 | 31054 ft | 420 kts | 206° |
| 2026-04-16 13:32 | 10.99518 | 119.33513 | 30488 ft | 420 kts | 206° |
| 2026-04-16 13:32 | 10.96883 | 119.32219 | 29920 ft | 420 kts | 206° |
| 2026-04-16 13:32 | 10.94286 | 119.30946 | 29272 ft | 419 kts | 206° |
| 2026-04-16 13:33 | 10.91663 | 119.29656 | 28632 ft | 418 kts | 206° |
| 2026-04-16 13:33 | 10.89043 | 119.28367 | 28009 ft | 418 kts | 206° |
| 2026-04-16 13:33 | 10.86431 | 119.27079 | 27398 ft | 417 kts | 206° |
| 2026-04-16 13:33 | 10.83817 | 119.25789 | 26792 ft | 416 kts | 206° |
| 2026-04-16 13:34 | 10.81223 | 119.24507 | 26210 ft | 415 kts | 206° |
| 2026-04-16 13:34 | 10.78625 | 119.23220 | 25634 ft | 414 kts | 206° |
| 2026-04-16 13:34 | 10.76036 | 119.21936 | 25071 ft | 413 kts | 206° |
| 2026-04-16 13:34 | 10.73493 | 119.20673 | 24525 ft | 412 kts | 206° |
| 2026-04-16 13:35 | 10.70919 | 119.19393 | 23977 ft | 411 kts | 205° |
| 2026-04-16 13:35 | 10.68354 | 119.18116 | 23435 ft | 410 kts | 205° |
| 2026-04-16 13:35 | 10.65789 | 119.16836 | 22792 ft | 409 kts | 205° |
| 2026-04-16 13:35 | 10.63237 | 119.15561 | 22163 ft | 408 kts | 205° |
| 2026-04-16 13:36 | 10.60693 | 119.14287 | 21547 ft | 407 kts | 205° |
| 2026-04-16 13:36 | 10.58153 | 119.13015 | 20947 ft | 406 kts | 205° |
| 2026-04-16 13:36 | 10.55632 | 119.11748 | 20355 ft | 400 kts | 205° |
| 2026-04-16 13:36 | 10.53162 | 119.10507 | 19777 ft | 393 kts | 205° |
| 2026-04-16 13:37 | 10.50731 | 119.09280 | 19210 ft | 387 kts | 205° |
| 2026-04-16 13:37 | 10.48330 | 119.08070 | 18647 ft | 382 kts | 205° |
| 2026-04-16 13:37 | 10.45966 | 119.06872 | 18078 ft | 378 kts | 205° |
| 2026-04-16 13:37 | 10.43619 | 119.05684 | 17443 ft | 375 kts | 205° |
| 2026-04-16 13:38 | 10.41293 | 119.04502 | 16821 ft | 372 kts | 205° |
| 2026-04-16 13:38 | 10.38935 | 119.03447 | 16210 ft | 368 kts | 199° |
| 2026-04-16 13:38 | 10.36647 | 119.02299 | 15609 ft | 367 kts | 211° |
| 2026-04-16 13:38 | 10.34546 | 119.00906 | 15036 ft | 365 kts | 212° |
| 2026-04-16 13:39 | 10.32404 | 118.99535 | 14460 ft | 362 kts | 209° |
| 2026-04-16 13:39 | 10.30190 | 118.98334 | 13897 ft | 360 kts | 206° |
| 2026-04-16 13:39 | 10.27982 | 118.97170 | 13297 ft | 358 kts | 207° |
| 2026-04-16 13:39 | 10.25803 | 118.95946 | 12675 ft | 356 kts | 208° |
| 2026-04-16 13:40 | 10.23651 | 118.94716 | 12063 ft | 354 kts | 208° |
| 2026-04-16 13:40 | 10.21502 | 118.93508 | 11466 ft | 350 kts | 208° |
| 2026-04-16 13:40 | 10.19409 | 118.92345 | 10874 ft | 336 kts | 207° |
| 2026-04-16 13:40 | 10.17390 | 118.91221 | 10282 ft | 326 kts | 208° |
| 2026-04-16 13:41 | 10.15425 | 118.90131 | 9681 ft | 318 kts | 205° |
| 2026-04-16 13:41 | 10.13332 | 118.89598 | 8965 ft | 310 kts | 180° |
| 2026-04-16 13:41 | 10.11229 | 118.89875 | 8318 ft | 302 kts | 163° |
| 2026-04-16 13:41 | 10.09228 | 118.90474 | 7730 ft | 297 kts | 162° |
| 2026-04-16 13:42 | 10.07301 | 118.91063 | 7146 ft | 283 kts | 161° |
| 2026-04-16 13:42 | 10.05451 | 118.91621 | 6548 ft | 273 kts | 161° |
| 2026-04-16 13:42 | 10.03667 | 118.92154 | 6151 ft | 259 kts | 162° |
| 2026-04-16 13:42 | 10.01913 | 118.92666 | 5896 ft | 266 kts | 162° |
| 2026-04-16 13:43 | 10.00113 | 118.93203 | 5645 ft | 273 kts | 162° |
| 2026-04-16 13:43 | 9.98301 | 118.93745 | 5395 ft | 278 kts | 162° |
| 2026-04-16 13:43 | 9.96401 | 118.94310 | 5083 ft | 284 kts | 162° |
| 2026-04-16 13:43 | 9.94486 | 118.94881 | 4776 ft | 289 kts | 162° |
| 2026-04-16 13:44 | 9.92617 | 118.95434 | 4462 ft | 278 kts | 162° |
| 2026-04-16 13:44 | 9.90793 | 118.95984 | 4144 ft | 269 kts | 162° |
| 2026-04-16 13:44 | 9.89011 | 118.96505 | 3825 ft | 263 kts | 163° |
| 2026-04-16 13:44 | 9.87268 | 118.97031 | 3502 ft | 259 kts | 162° |
| 2026-04-16 13:45 | 9.85555 | 118.97540 | 3194 ft | 255 kts | 163° |
| 2026-04-16 13:45 | 9.83856 | 118.98044 | 2876 ft | 254 kts | 162° |
| 2026-04-16 13:45 | 9.82169 | 118.98543 | 2610 ft | 250 kts | 163° |
| 2026-04-16 13:45 | 9.80463 | 118.98697 | 2528 ft | 249 kts | 183° |
| 2026-04-16 13:46 | 9.78715 | 118.98598 | 2509 ft | 253 kts | 182° |
| 2026-04-16 13:46 | 9.76955 | 118.98509 | 2505 ft | 254 kts | 182° |
| 2026-04-16 13:46 | 9.75233 | 118.98155 | 2492 ft | 256 kts | 208° |
| 2026-04-16 13:46 | 9.73924 | 118.96955 | 2491 ft | 255 kts | 236° |
| 2026-04-16 13:47 | 9.73381 | 118.95270 | 2490 ft | 254 kts | 266° |
| 2026-04-16 13:47 | 9.73398 | 118.93513 | 2493 ft | 239 kts | 273° |
| 2026-04-16 13:47 | 9.73489 | 118.91928 | 2404 ft | 210 kts | 275° |
| 2026-04-16 13:47 | 9.73572 | 118.90525 | 2283 ft | 191 kts | 274° |
| 2026-04-16 13:48 | 9.73633 | 118.89199 | 2128 ft | 190 kts | 273° |
| 2026-04-16 13:48 | 9.73693 | 118.87833 | 1906 ft | 197 kts | 273° |
| 2026-04-16 13:48 | 9.73753 | 118.86440 | 1682 ft | 199 kts | 273° |
| 2026-04-16 13:48 | 9.73815 | 118.85038 | 1464 ft | 200 kts | 273° |
| 2026-04-16 13:49 | 9.73873 | 118.83699 | 1240 ft | 175 kts | 273° |
| 2026-04-16 13:49 | 9.73922 | 118.82573 | 1068 ft | 148 kts | 274° |
| 2026-04-16 13:49 | 9.73966 | 118.81572 | 952 ft | 139 kts | 273° |
| 2026-04-16 13:49 | 9.73987 | 118.80594 | 748 ft | 140 kts | 270° |
| 2026-04-16 13:50 | 9.74022 | 118.79608 | 540 ft | 140 kts | 276° |
| 2026-04-16 13:50 | 9.74086 | 118.78640 | 354 ft | 133 kts | 274° |
| 2026-04-16 13:50 | 9.74115 | 118.78031 | 254 ft | 127 kts | 272° |
| 2026-04-16 13:50 | 9.74156 | 118.77159 | 69 ft | 121 kts | 274° |
| 2026-04-16 13:51 | 9.74194 | 118.76370 | 40 ft | 99 kts | 272° |
| 2026-04-16 13:51 | 9.74219 | 118.75775 | 56 ft | 73 kts | 272° |
| 2026-04-16 13:51 | 9.74238 | 118.75358 | 67 ft | 49 kts | 272° |
| 2026-04-16 13:51 | 9.74312 | 118.75254 | 70 ft | 16 kts | 5° |
| 2026-04-16 13:52 | 9.74401 | 118.75231 | 70 ft | 13 kts | 299° |
| 2026-04-16 13:52 | 9.74412 | 118.75156 | 70 ft | 6 kts | 275° |
| 2026-04-16 13:52 | 9.74416 | 118.75148 | 68 ft | 3 kts | 318° |
| 2026-04-16 13:52 | 9.74447 | 118.75152 | 64 ft | 5 kts | 8° |
| 2026-04-16 13:53 | 9.74487 | 118.75154 | 72 ft | 6 kts | 2° |
| 2026-04-16 13:53 | 9.74510 | 118.75155 | 68 ft | 0 kts | 3° |